Test Metars

LFOB 131200Z AUTO 09010KT 050V160 CAVOK 32/07 Q1014 NOSIG

 

Available data for LFOB from the past 2 hours
BEAUVAIS/TILLE(A
Metar
LFOB 131200Z AUTO 09010KT 050V160 CAVOK 32/07 Q1014 NOSIG

12:00 UTC

Wind: 90° 10kt

Visibility:

Sky:

Temp: 32 deg C / 89.6 deg F

Dewpoint: 7 deg C / 44.6 deg F

Pressure: 1014 hPa

TAF
TAF LFOB 131100Z 1312/1412 13010KT CAVOK BECMG 1410/1412 VRB03KT

Réalisateur / Photographe